ADDS TAF Board (Experimental) INFO

IDs: Format: Expanded Condensed

Updated at: 0615 UTC 25 Oct 2014

KPHX - Phoenix/Sky Harbor, AZ, US

Issued at 0520 UTC 25 Oct 2014
Time0551Z25/07Z25/08Z25/09Z25/10Z25/11Z25/12Z25/13Z25/14Z25/15Z25/16Z25/17Z25/18Z25/19Z
TypeOBSPRVLPRVLPRVLPRVLPRVLPRVLPRVLPRVLPRVLPRVLPRVLPRVLPRVL
VIS10>6>6>6>6>6>6>6>6>6>6>6>6>6
CIG------------------------100100
CoverCLRSKCSKCSKCSKCSKCSKCSKCSCTSCTSCTSCTBKNBKN
FltCat--VFRVFRVFRVFRVFRVFRVFRVFRVFRVFRVFRVFRVFR
WX----------------------------
WDir110100100100100100100100100100100100140140
WSpd45555555555566
WGst----------------------------
R07/25
XWnd-1-1-1-1-1-1-1-1-1-1-1-1-5-5
HWnd45555555555544
R08/26
XWnd-1-1-1-1-1-1-1-1-1-1-1-1-5-5
HWnd45555555555544
Raw TAF
KPHX 250520Z 2506/2606 10005KT P6SM SKC
  FM251400 10005KT P6SM SCT100
  FM251800 14006KT P6SM SCT080 BKN100
  FM252200 26008KT P6SM BKN080 BKN120
  FM260400 28005KT P6SM FEW080 SCT120


Raw METAR
KPHX 250551Z 11004KT 10SM CLR 26/12 A2998 RMK AO2 SLP134 T02560117 10350 20256 51009

TAF Board Legend

Hazard VFR MVFR IFR LIFR
Visibility (sm) >5 3≤X≤5 1≤X<3 <1
Ceiling (100 ft) >30 10≤X≤30 5≤X<10 <5
Wind Speed (kt) <10 10≤X<20 20≤X<30 ≥30
Wind Gust (kt) <15 15≤X<25 25≤X<35 ≥35
Weather No Wx Reported VCTS,-TS,-FZRA TS,FZRA +TS,+FZRA


Page loaded:  06:15 UTC  |   11:15 PM Pacific  |   12:15 AM Mountain  |   01:15 AM Central  |   02:15 AM Eastern

 

ADVISORIES

FORECASTS

FORECASTS

OBSERVATIONS

USER TOOLS

ABOUT US